sensor_id;sensor_type;location;lat;lon;timestamp;pressure;altitude;pressure_sealevel;temperature;humidity
5879;BME280;2965;42.640;23.370;2022-12-11T05:01:12;92445.78;;;13.50;100.00
5879;BME280;2965;42.640;23.370;2022-12-11T05:03:38;92453.19;;;13.58;100.00
5879;BME280;2965;42.640;23.370;2022-12-11T05:06:04;92464.75;;;13.57;100.00
5879;BME280;2965;42.640;23.370;2022-12-11T05:08:33;92452.28;;;13.74;100.00
5879;BME280;2965;42.640;23.370;2022-12-11T05:11:01;92460.19;;;13.79;100.00
5879;BME280;2965;42.640;23.370;2022-12-11T05:13:28;92451.25;;;13.80;100.00
5879;BME280;2965;42.640;23.370;2022-12-11T05:15:53;92456.38;;;13.97;100.00
5879;BME280;2965;42.640;23.370;2022-12-11T05:18:19;92465.25;;;13.86;100.00
5879;BME280;2965;42.640;23.370;2022-12-11T05:20:57;92472.56;;;13.84;100.00
5879;BME280;2965;42.640;23.370;2022-12-11T05:23:23;92488.22;;;14.06;100.00
5879;BME280;2965;42.640;23.370;2022-12-11T05:25:52;92500.69;;;14.21;100.00
5879;BME280;2965;42.640;23.370;2022-12-11T05:28:19;92501.00;;;14.29;100.00
5879;BME280;2965;42.640;23.370;2022-12-11T05:30:45;92487.06;;;14.34;100.00
5879;BME280;2965;42.640;23.370;2022-12-11T05:33:10;92495.28;;;14.43;100.00
5879;BME280;2965;42.640;23.370;2022-12-11T05:35:35;92486.38;;;14.44;100.00
5879;BME280;2965;42.640;23.370;2022-12-11T05:38:01;92480.56;;;14.47;100.00
5879;BME280;2965;42.640;23.370;2022-12-11T05:40:26;92473.44;;;14.42;100.00
5879;BME280;2965;42.640;23.370;2022-12-11T05:42:51;92466.94;;;14.50;100.00
5879;BME280;2965;42.640;23.370;2022-12-11T05:45:17;92461.63;;;14.45;100.00
5879;BME280;2965;42.640;23.370;2022-12-11T05:47:42;92444.00;;;14.40;100.00
5879;BME280;2965;42.640;23.370;2022-12-11T05:50:08;92447.94;;;14.43;100.00
5879;BME280;2965;42.640;23.370;2022-12-11T05:52:35;92460.63;;;14.51;100.00
5879;BME280;2965;42.640;23.370;2022-12-11T05:55:00;92464.84;;;14.52;100.00
5879;BME280;2965;42.640;23.370;2022-12-11T05:57:25;92456.72;;;14.58;100.00
5879;BME280;2965;42.640;23.370;2022-12-11T05:59:51;92453.31;;;14.63;100.00
5879;BME280;2965;42.640;23.370;2022-12-11T06:02:17;92437.25;;;14.59;100.00
5879;BME280;2965;42.640;23.370;2022-12-11T06:04:42;92444.88;;;14.56;100.00
5879;BME280;2965;42.640;23.370;2022-12-11T06:07:08;92459.78;;;14.45;100.00
5879;BME280;2965;42.640;23.370;2022-12-11T06:09:33;92480.56;;;14.47;100.00
5879;BME280;2965;42.640;23.370;2022-12-11T06:11:58;92459.31;;;14.48;100.00
5879;BME280;2965;42.640;23.370;2022-12-11T06:14:24;92447.25;;;14.52;100.00
5879;BME280;2965;42.640;23.370;2022-12-11T06:16:49;92451.63;;;14.42;100.00
5879;BME280;2965;42.640;23.370;2022-12-11T06:19:15;92440.09;;;14.48;100.00
5879;BME280;2965;42.640;23.370;2022-12-11T06:21:42;92464.34;;;14.55;100.00
5879;BME280;2965;42.640;23.370;2022-12-11T06:24:09;92481.69;;;14.51;100.00
5879;BME280;2965;42.640;23.370;2022-12-11T06:26:35;92493.31;;;14.65;100.00
5879;BME280;2965;42.640;23.370;2022-12-11T06:29:00;92508.59;;;14.68;100.00
5879;BME280;2965;42.640;23.370;2022-12-11T06:31:26;92508.69;;;14.83;100.00
5879;BME280;2965;42.640;23.370;2022-12-11T06:33:51;92529.22;;;14.92;100.00
5879;BME280;2965;42.640;23.370;2022-12-11T06:36:19;92507.72;;;15.10;100.00
5879;BME280;2965;42.640;23.370;2022-12-11T06:38:45;92492.94;;;15.09;100.00
5879;BME280;2965;42.640;23.370;2022-12-11T06:41:12;92512.44;;;15.18;100.00
5879;BME280;2965;42.640;23.370;2022-12-11T06:43:40;92496.16;;;15.31;100.00
5879;BME280;2965;42.640;23.370;2022-12-11T06:46:14;92479.56;;;15.21;100.00
5879;BME280;2965;42.640;23.370;2022-12-11T06:48:40;92467.69;;;15.13;100.00
5879;BME280;2965;42.640;23.370;2022-12-11T06:51:11;92487.19;;;15.17;100.00
5879;BME280;2965;42.640;23.370;2022-12-11T06:53:38;92484.03;;;15.20;100.00
5879;BME280;2965;42.640;23.370;2022-12-11T06:56:05;92502.19;;;15.22;100.00
5879;BME280;2965;42.640;23.370;2022-12-11T06:58:33;92523.03;;;15.28;100.00
5879;BME280;2965;42.640;23.370;2022-12-11T07:01:00;92522.75;;;15.30;100.00
5879;BME280;2965;42.640;23.370;2022-12-11T07:03:26;92539.13;;;15.32;100.00
5879;BME280;2965;42.640;23.370;2022-12-11T07:05:51;92518.84;;;15.37;100.00
5879;BME280;2965;42.640;23.370;2022-12-11T07:08:17;92506.72;;;15.42;100.00
5879;BME280;2965;42.640;23.370;2022-12-11T07:10:42;92504.59;;;15.33;100.00
5879;BME280;2965;42.640;23.370;2022-12-11T07:13:08;92503.53;;;15.29;100.00
5879;BME280;2965;42.640;23.370;2022-12-11T07:15:34;92509.88;;;15.33;100.00
5879;BME280;2965;42.640;23.370;2022-12-11T07:18:00;92491.44;;;15.28;100.00
5879;BME280;2965;42.640;23.370;2022-12-11T07:20:26;92504.59;;;15.33;100.00
5879;BME280;2965;42.640;23.370;2022-12-11T07:22:52;92541.47;;;15.33;100.00
5879;BME280;2965;42.640;23.370;2022-12-11T07:25:18;92534.66;;;15.43;100.00
5879;BME280;2965;42.640;23.370;2022-12-11T07:27:43;92523.59;;;15.56;100.00
5879;BME280;2965;42.640;23.370;2022-12-11T07:30:09;92529.41;;;15.53;100.00
5879;BME280;2965;42.640;23.370;2022-12-11T07:32:35;92532.56;;;15.55;100.00
5879;BME280;2965;42.640;23.370;2022-12-11T07:35:00;92537.31;;;15.58;100.00
5879;BME280;2965;42.640;23.370;2022-12-11T07:37:26;92543.16;;;15.65;100.00
5879;BME280;2965;42.640;23.370;2022-12-11T07:39:51;92551.03;;;15.60;100.00
5879;BME280;2965;42.640;23.370;2022-12-11T07:42:17;92576.59;;;15.59;100.00
5879;BME280;2965;42.640;23.370;2022-12-11T07:44:42;92562.66;;;15.64;100.00
5879;BME280;2965;42.640;23.370;2022-12-11T07:47:08;92551.59;;;15.67;100.00
5879;BME280;2965;42.640;23.370;2022-12-11T07:49:33;92569.00;;;15.68;100.00
5879;BME280;2965;42.640;23.370;2022-12-11T07:51:58;92578.75;;;15.78;100.00
5879;BME280;2965;42.640;23.370;2022-12-11T07:54:24;92568.22;;;15.78;100.00
5879;BME280;2965;42.640;23.370;2022-12-11T07:56:49;92558.19;;;15.75;100.00
5879;BME280;2965;42.640;23.370;2022-12-11T07:59:15;92577.41;;;15.75;100.00
5879;BME280;2965;42.640;23.370;2022-12-11T08:01:41;92585.09;;;15.77;96.76
5879;BME280;2965;42.640;23.370;2022-12-11T08:04:10;92592.47;;;15.90;96.05
5879;BME280;2965;42.640;23.370;2022-12-11T08:06:37;92589.56;;;15.92;100.00
5879;BME280;2965;42.640;23.370;2022-12-11T08:09:08;92584.31;;;15.92;99.88
5879;BME280;2965;42.640;23.370;2022-12-11T08:11:34;92603.28;;;15.83;99.24
5879;BME280;2965;42.640;23.370;2022-12-11T08:13:59;92604.88;;;15.95;100.00
5879;BME280;2965;42.640;23.370;2022-12-11T08:16:25;92582.72;;;16.01;100.00
5879;BME280;2965;42.640;23.370;2022-12-11T08:18:51;92583.78;;;16.05;100.00
5879;BME280;2965;42.640;23.370;2022-12-11T08:21:22;92590.13;;;16.04;100.00
5879;BME280;2965;42.640;23.370;2022-12-11T08:23:48;92590.13;;;15.99;100.00
5879;BME280;2965;42.640;23.370;2022-12-11T08:26:17;92584.31;;;15.92;100.00
5879;BME280;2965;42.640;23.370;2022-12-11T08:28:43;92591.16;;;15.93;100.00
5879;BME280;2965;42.640;23.370;2022-12-11T08:31:10;92592.22;;;15.97;100.00
5879;BME280;2965;42.640;23.370;2022-12-11T08:33:37;92588.56;;;16.03;99.31
5879;BME280;2965;42.640;23.370;2022-12-11T08:36:05;92585.91;;;16.08;99.93
5879;BME280;2965;42.640;23.370;2022-12-11T08:38:31;92586.44;;;16.10;99.87
5879;BME280;2965;42.640;23.370;2022-12-11T08:40:56;92595.91;;;16.06;97.45
5879;BME280;2965;42.640;23.370;2022-12-11T08:43:22;92587.50;;;16.04;99.01
5879;BME280;2965;42.640;23.370;2022-12-11T08:45:47;92572.44;;;16.04;97.47
5879;BME280;2965;42.640;23.370;2022-12-11T08:48:12;92581.16;;;16.00;97.25
5879;BME280;2965;42.640;23.370;2022-12-11T08:50:38;92587.22;;;15.90;97.41
5879;BME280;2965;42.640;23.370;2022-12-11T08:53:03;92577.72;;;15.99;98.55
5879;BME280;2965;42.640;23.370;2022-12-11T08:55:28;92585.63;;;15.99;98.43
5879;BME280;2965;42.640;23.370;2022-12-11T08:57:54;92580.09;;;16.06;100.00
5879;BME280;2965;42.640;23.370;2022-12-11T09:00:19;92567.97;;;16.00;100.00
5879;BME280;2965;42.640;23.370;2022-12-11T09:02:45;92578.53;;;15.95;100.00
5879;BME280;2965;42.640;23.370;2022-12-11T09:05:10;92594.56;;;15.83;100.00
5879;BME280;2965;42.640;23.370;2022-12-11T09:07:36;92573.25;;;15.95;100.00
5879;BME280;2965;42.640;23.370;2022-12-11T09:10:06;92588.53;;;16.08;100.00
5879;BME280;2965;42.640;23.370;2022-12-11T09:12:32;92576.94;;;16.04;100.00
5879;BME280;2965;42.640;23.370;2022-12-11T09:14:58;92567.44;;;16.08;100.00
5879;BME280;2965;42.640;23.370;2022-12-11T09:17:24;92575.34;;;16.13;100.00
5879;BME280;2965;42.640;23.370;2022-12-11T09:19:49;92563.22;;;16.22;100.00
5879;BME280;2965;42.640;23.370;2022-12-11T09:22:15;92568.75;;;16.26;97.38
5879;BME280;2965;42.640;23.370;2022-12-11T09:24:40;92565.84;;;16.22;98.23
5879;BME280;2965;42.640;23.370;2022-12-11T09:27:06;92563.75;;;16.19;96.97
5879;BME280;2965;42.640;23.370;2022-12-11T09:29:31;92574.31;;;16.29;96.66
5879;BME280;2965;42.640;23.370;2022-12-11T09:31:57;92591.97;;;16.24;96.67
5879;BME280;2965;42.640;23.370;2022-12-11T09:34:23;92568.50;;;16.12;97.07
5879;BME280;2965;42.640;23.370;2022-12-11T09:36:48;92566.91;;;16.11;97.70
5879;BME280;2965;42.640;23.370;2022-12-11T09:39:16;92548.44;;;16.01;98.02
5879;BME280;2965;42.640;23.370;2022-12-11T09:46:35;92560.84;;;16.15;97.13
5879;BME280;2965;42.640;23.370;2022-12-11T09:49:03;92556.38;;;16.21;96.06
5879;BME280;2965;42.640;23.370;2022-12-11T09:51:41;92564.78;;;16.23;96.46
5879;BME280;2965;42.640;23.370;2022-12-11T09:54:11;92557.41;;;16.15;98.89
5879;BME280;2965;42.640;23.370;2022-12-11T09:57:05;92557.94;;;16.02;100.00
5879;BME280;2965;42.640;23.370;2022-12-11T10:07:56;92548.44;;;16.06;100.00
5879;BME280;2965;42.640;23.370;2022-12-11T10:10:46;92544.22;;;16.10;100.00
5879;BME280;2965;42.640;23.370;2022-12-11T10:18:38;92537.88;;;15.80;100.00
5879;BME280;2965;42.640;23.370;2022-12-11T10:21:04;92537.88;;;15.80;100.00
5879;BME280;2965;42.640;23.370;2022-12-11T10:23:35;92547.41;;;15.76;100.00
5879;BME280;2965;42.640;23.370;2022-12-11T10:26:08;92542.09;;;15.71;100.00
5879;BME280;2965;42.640;23.370;2022-12-11T10:28:35;92544.50;;;15.78;100.00
5879;BME280;2965;42.640;23.370;2022-12-11T10:36:20;92522.09;;;15.96;100.00
5879;BME280;2965;42.640;23.370;2022-12-11T10:38:49;92514.69;;;16.23;100.00
5879;BME280;2965;42.640;23.370;2022-12-11T10:41:21;92524.94;;;16.45;100.00
5879;BME280;2965;42.640;23.370;2022-12-11T10:43:51;92525.69;;;16.76;100.00
5879;BME280;2965;42.640;23.370;2022-12-11T10:46:25;92524.19;;;17.25;100.00
5879;BME280;2965;42.640;23.370;2022-12-11T10:48:57;92506.22;;;17.66;100.00
5879;BME280;2965;42.640;23.370;2022-12-11T10:51:25;92507.94;;;17.91;100.00
5879;BME280;2965;42.640;23.370;2022-12-11T10:54:15;92518.66;;;18.05;100.00
5879;BME280;2965;42.640;23.370;2022-12-11T10:56:45;92516.50;;;18.12;100.00
5879;BME280;2965;42.640;23.370;2022-12-11T10:59:47;92513.81;;;18.46;100.00
5879;BME280;2965;42.640;23.370;2022-12-11T11:02:37;92508.56;;;18.94;96.35
5879;BME280;2965;42.640;23.370;2022-12-11T11:05:28;92513.25;;;19.45;85.68
5879;BME280;2965;42.640;23.370;2022-12-11T11:08:19;92513.16;;;19.31;83.03
5879;BME280;2965;42.640;23.370;2022-12-11T11:13:20;92501.88;;;18.78;86.55
5879;BME280;2965;42.640;23.370;2022-12-11T11:15:47;92504.75;;;18.52;91.49
5879;BME280;2965;42.640;23.370;2022-12-11T11:18:23;92501.31;;;17.94;88.20
5879;BME280;2965;42.640;23.370;2022-12-11T11:20:50;92506.19;;;17.76;92.56
5879;BME280;2965;42.640;23.370;2022-12-11T11:23:17;92497.88;;;17.54;98.30
5879;BME280;2965;42.640;23.370;2022-12-11T11:25:55;92499.28;;;16.66;100.00
5879;BME280;2965;42.640;23.370;2022-12-11T11:28:28;92510.94;;;16.55;100.00
5879;BME280;2965;42.640;23.370;2022-12-11T11:31:04;92497.41;;;16.72;100.00
5879;BME280;2965;42.640;23.370;2022-12-11T11:33:33;92488.69;;;16.86;100.00
5879;BME280;2965;42.640;23.370;2022-12-11T11:36:27;92482.88;;;16.89;100.00
5879;BME280;2965;42.640;23.370;2022-12-11T11:41:57;92494.06;;;16.56;100.00
5879;BME280;2965;42.640;23.370;2022-12-11T11:44:49;92501.97;;;16.61;100.00
5879;BME280;2965;42.640;23.370;2022-12-11T11:47:26;92503.03;;;16.45;100.00
5879;BME280;2965;42.640;23.370;2022-12-11T11:50:10;92486.97;;;16.36;100.00
5879;BME280;2965;42.640;23.370;2022-12-11T11:58:03;92470.38;;;16.25;100.00
5879;BME280;2965;42.640;23.370;2022-12-11T12:00:31;92454.59;;;16.05;100.00
5879;BME280;2965;42.640;23.370;2022-12-11T12:03:00;92460.41;;;15.81;100.00
5879;BME280;2965;42.640;23.370;2022-12-11T12:05:34;92445.09;;;15.83;100.00
5879;BME280;2965;42.640;23.370;2022-12-11T12:13:41;92425.59;;;15.54;100.00
5879;BME280;2965;42.640;23.370;2022-12-11T12:16:21;92436.63;;;15.30;100.00
5879;BME280;2965;42.640;23.370;2022-12-11T12:21:46;92434.78;;;15.21;100.00
5879;BME280;2965;42.640;23.370;2022-12-11T12:24:32;92444.00;;;15.18;100.00
5879;BME280;2965;42.640;23.370;2022-12-11T12:27:20;92429.78;;;15.24;100.00
5879;BME280;2965;42.640;23.370;2022-12-11T12:30:07;92419.50;;;15.23;100.00
5879;BME280;2965;42.640;23.370;2022-12-11T12:36:17;92430.63;;;15.45;100.00
5879;BME280;2965;42.640;23.370;2022-12-11T12:39:02;92438.25;;;15.36;100.00
5879;BME280;2965;42.640;23.370;2022-12-11T12:44:18;92465.94;;;13.76;100.00
5879;BME280;2965;42.640;23.370;2022-12-11T12:47:02;92471.44;;;12.88;100.00
5879;BME280;2965;42.640;23.370;2022-12-11T12:49:34;92460.97;;;12.23;100.00
5879;BME280;2965;42.640;23.370;2022-12-11T12:52:02;92462.94;;;11.94;100.00
5879;BME280;2965;42.640;23.370;2022-12-11T12:54:30;92470.19;;;11.24;100.00
5879;BME280;2965;42.640;23.370;2022-12-11T12:56:58;92477.13;;;11.02;100.00
5879;BME280;2965;42.640;23.370;2022-12-11T12:59:27;92498.78;;;10.57;100.00
5879;BME280;2965;42.640;23.370;2022-12-11T13:01:55;92530.09;;;9.93;100.00
5879;BME280;2965;42.640;23.370;2022-12-11T13:04:41;92519.50;;;9.53;100.00
5879;BME280;2965;42.640;23.370;2022-12-11T13:07:22;92497.00;;;9.28;100.00
5879;BME280;2965;42.640;23.370;2022-12-11T13:10:03;92512.03;;;8.84;100.00
5879;BME280;2965;42.640;23.370;2022-12-11T13:12:47;92514.94;;;8.76;100.00
5879;BME280;2965;42.640;23.370;2022-12-11T13:18:05;92517.03;;;8.38;100.00
5879;BME280;2965;42.640;23.370;2022-12-11T13:20:49;92537.75;;;8.07;100.00
5879;BME280;2965;42.640;23.370;2022-12-11T13:23:17;92529.47;;;7.92;100.00
5879;BME280;2965;42.640;23.370;2022-12-11T13:25:50;92516.09;;;7.70;100.00
5879;BME280;2965;42.640;23.370;2022-12-11T13:28:25;92548.84;;;7.53;100.00
5879;BME280;2965;42.640;23.370;2022-12-11T13:31:02;92554.72;;;7.42;100.00
5879;BME280;2965;42.640;23.370;2022-12-11T13:33:28;92562.31;;;7.12;100.00
5879;BME280;2965;42.640;23.370;2022-12-11T13:36:25;92553.41;;;7.01;100.00
5879;BME280;2965;42.640;23.370;2022-12-11T13:38:58;92591.28;;;6.83;100.00
5879;BME280;2965;42.640;23.370;2022-12-11T13:41:26;92576.31;;;6.79;100.00
5879;BME280;2965;42.640;23.370;2022-12-11T13:43:52;92591.09;;;6.78;100.00
5879;BME280;2965;42.640;23.370;2022-12-11T13:49:00;92601.13;;;6.68;100.00
5879;BME280;2965;42.640;23.370;2022-12-11T13:51:29;92618.91;;;6.71;100.00
5879;BME280;2965;42.640;23.370;2022-12-11T13:54:02;92626.69;;;6.71;100.00
5879;BME280;2965;42.640;23.370;2022-12-11T13:56:28;92632.72;;;6.65;100.00
5879;BME280;2965;42.640;23.370;2022-12-11T13:58:53;92624.78;;;6.47;100.00
5879;BME280;2965;42.640;23.370;2022-12-11T14:01:25;92646.97;;;6.43;100.00
5879;BME280;2965;42.640;23.370;2022-12-11T14:04:05;92656.38;;;6.30;100.00
5879;BME280;2965;42.640;23.370;2022-12-11T14:06:32;92652.41;;;6.21;100.00
5879;BME280;2965;42.640;23.370;2022-12-11T14:09:00;92664.38;;;6.22;100.00
5879;BME280;2965;42.640;23.370;2022-12-11T14:11:30;92664.56;;;6.14;100.00
5879;BME280;2965;42.640;23.370;2022-12-11T14:13:57;92674.19;;;6.07;100.00
5879;BME280;2965;42.640;23.370;2022-12-11T14:32:40;92708.19;;;5.51;100.00
5879;BME280;2965;42.640;23.370;2022-12-11T14:35:22;92705.00;;;5.49;100.00
5879;BME280;2965;42.640;23.370;2022-12-11T14:37:48;92705.78;;;5.43;100.00
5879;BME280;2965;42.640;23.370;2022-12-11T14:40:19;92708.56;;;5.35;100.00
5879;BME280;2965;42.640;23.370;2022-12-11T14:42:50;92715.06;;;5.17;100.00
5879;BME280;2965;42.640;23.370;2022-12-11T14:45:30;92734.59;;;5.13;100.00
5879;BME280;2965;42.640;23.370;2022-12-11T14:47:57;92716.66;;;5.05;100.00
5879;BME280;2965;42.640;23.370;2022-12-11T14:50:42;92720.97;;;4.98;100.00
5879;BME280;2965;42.640;23.370;2022-12-11T14:53:23;92728.16;;;4.96;100.00
5879;BME280;2965;42.640;23.370;2022-12-11T14:55:51;92739.28;;;4.90;100.00
5879;BME280;2965;42.640;23.370;2022-12-11T14:58:23;92733.91;;;4.91;100.00
5879;BME280;2965;42.640;23.370;2022-12-11T15:01:01;92739.66;;;4.87;100.00
5879;BME280;2965;42.640;23.370;2022-12-11T15:03:36;92732.28;;;4.84;100.00
5879;BME280;2965;42.640;23.370;2022-12-11T15:06:17;92736.66;;;4.83;100.00
5879;BME280;2965;42.640;23.370;2022-12-11T15:08:45;92748.19;;;4.80;100.00
5879;BME280;2965;42.640;23.370;2022-12-11T15:11:13;92743.00;;;4.74;100.00
5879;BME280;2965;42.640;23.370;2022-12-11T15:13:56;92744.38;;;4.76;100.00
5879;BME280;2965;42.640;23.370;2022-12-11T15:16:23;92756.91;;;4.73;100.00
5879;BME280;2965;42.640;23.370;2022-12-11T15:18:51;92764.88;;;4.71;100.00
5879;BME280;2965;42.640;23.370;2022-12-11T15:21:17;92752.94;;;4.70;100.00
5879;BME280;2965;42.640;23.370;2022-12-11T15:26:08;92761.97;;;4.53;100.00
5879;BME280;2965;42.640;23.370;2022-12-11T15:28:35;92758.19;;;4.55;100.00
5879;BME280;2965;42.640;23.370;2022-12-11T15:31:07;92758.19;;;4.55;100.00
5879;BME280;2965;42.640;23.370;2022-12-11T15:33:46;92760.75;;;4.49;100.00
5879;BME280;2965;42.640;23.370;2022-12-11T15:36:47;92767.88;;;4.40;100.00
5879;BME280;2965;42.640;23.370;2022-12-11T15:39:12;92751.91;;;4.37;100.00
5879;BME280;2965;42.640;23.370;2022-12-11T15:41:40;92763.75;;;4.24;100.00
5879;BME280;2965;42.640;23.370;2022-12-11T15:44:13;92766.09;;;4.19;100.00
5879;BME280;2965;42.640;23.370;2022-12-11T15:46:41;92764.31;;;4.20;100.00
5879;BME280;2965;42.640;23.370;2022-12-11T15:52:01;92763.63;;;4.11;100.00
5879;BME280;2965;42.640;23.370;2022-12-11T15:54:27;92761.19;;;4.03;100.00
5879;BME280;2965;42.640;23.370;2022-12-11T15:56:53;92756.31;;;3.93;100.00
5879;BME280;2965;42.640;23.370;2022-12-11T15:59:23;92770.69;;;3.96;100.00
5879;BME280;2965;42.640;23.370;2022-12-11T16:01:49;92777.44;;;3.97;100.00
5879;BME280;2965;42.640;23.370;2022-12-11T16:04:14;92777.97;;;3.86;100.00
5879;BME280;2965;42.640;23.370;2022-12-11T16:06:39;92787.75;;;3.90;100.00
5879;BME280;2965;42.640;23.370;2022-12-11T16:09:09;92786.69;;;3.85;100.00
5879;BME280;2965;42.640;23.370;2022-12-11T16:11:34;92783.38;;;3.91;100.00
5879;BME280;2965;42.640;23.370;2022-12-11T16:14:00;92796.75;;;3.94;100.00
5879;BME280;2965;42.640;23.370;2022-12-11T16:16:28;92800.13;;;3.95;100.00
5879;BME280;2965;42.640;23.370;2022-12-11T16:18:54;92804.50;;;3.94;100.00
5879;BME280;2965;42.640;23.370;2022-12-11T16:21:19;92818.66;;;3.98;100.00
5879;BME280;2965;42.640;23.370;2022-12-11T16:23:45;92829.56;;;3.94;100.00
5879;BME280;2965;42.640;23.370;2022-12-11T16:26:10;92829.56;;;3.94;100.00
5879;BME280;2965;42.640;23.370;2022-12-11T16:28:36;92825.22;;;3.94;100.00
5879;BME280;2965;42.640;23.370;2022-12-11T16:31:01;92821.19;;;3.92;100.00
5879;BME280;2965;42.640;23.370;2022-12-11T16:33:26;92830.66;;;3.85;100.00
5879;BME280;2965;42.640;23.370;2022-12-11T16:35:52;92839.06;;;3.87;100.00
5879;BME280;2965;42.640;23.370;2022-12-11T16:38:17;92841.00;;;3.85;100.00
5879;BME280;2965;42.640;23.370;2022-12-11T16:40:43;92851.34;;;3.85;100.00
5879;BME280;2965;42.640;23.370;2022-12-11T16:43:09;92866.50;;;3.88;100.00
5879;BME280;2965;42.640;23.370;2022-12-11T16:45:35;92865.38;;;3.90;100.00
5879;BME280;2965;42.640;23.370;2022-12-11T16:48:03;92864.06;;;4.01;100.00
5879;BME280;2965;42.640;23.370;2022-12-11T16:50:29;92854.22;;;3.90;100.00
5879;BME280;2965;42.640;23.370;2022-12-11T16:52:56;92879.59;;;4.01;100.00
5879;BME280;2965;42.640;23.370;2022-12-11T16:55:21;92890.59;;;4.03;100.00
5879;BME280;2965;42.640;23.370;2022-12-11T16:57:47;92879.41;;;4.02;100.00
5879;BME280;2965;42.640;23.370;2022-12-11T17:00:12;92879.41;;;4.02;100.00
5879;BME280;2965;42.640;23.370;2022-12-11T17:02:38;92876.94;;;3.94;100.00
5879;BME280;2965;42.640;23.370;2022-12-11T17:05:04;92882.94;;;3.95;100.00
5879;BME280;2965;42.640;23.370;2022-12-11T17:07:33;92884.28;;;3.91;100.00
5879;BME280;2965;42.640;23.370;2022-12-11T17:10:02;92885.63;;;3.87;100.00
5879;BME280;2965;42.640;23.370;2022-12-11T17:12:29;92886.31;;;3.80;100.00
5879;BME280;2965;42.640;23.370;2022-12-11T17:14:55;92881.97;;;3.81;100.00
5879;BME280;2965;42.640;23.370;2022-12-11T17:17:21;92895.31;;;3.85;100.00
5879;BME280;2965;42.640;23.370;2022-12-11T17:19:46;92897.31;;;3.83;100.00
5879;BME280;2965;42.640;23.370;2022-12-11T17:22:12;92885.25;;;3.90;100.00
5879;BME280;2965;42.640;23.370;2022-12-11T17:24:37;92899.41;;;3.94;100.00
5879;BME280;2965;42.640;23.370;2022-12-11T17:27:03;92909.16;;;3.92;100.00
5879;BME280;2965;42.640;23.370;2022-12-11T17:29:28;92917.47;;;3.87;100.00
5879;BME280;2965;42.640;23.370;2022-12-11T17:31:54;92924.59;;;3.85;100.00
5879;BME280;2965;42.640;23.370;2022-12-11T17:34:19;92927.72;;;3.80;100.00
5879;BME280;2965;42.640;23.370;2022-12-11T17:36:44;92925.41;;;3.86;100.00
5879;BME280;2965;42.640;23.370;2022-12-11T17:39:10;92935.38;;;3.89;100.00
5879;BME280;2965;42.640;23.370;2022-12-11T17:41:36;92931.66;;;3.76;100.00
5879;BME280;2965;42.640;23.370;2022-12-11T17:44:01;92918.59;;;3.85;100.00
5879;BME280;2965;42.640;23.370;2022-12-11T17:46:26;92918.34;;;3.79;100.00
5879;BME280;2965;42.640;23.370;2022-12-11T17:48:52;92935.16;;;3.69;100.00
5879;BME280;2965;42.640;23.370;2022-12-11T17:51:18;92932.38;;;3.70;100.00
5879;BME280;2965;42.640;23.370;2022-12-11T17:53:49;92935.94;;;3.69;100.00
5879;BME280;2965;42.640;23.370;2022-12-11T17:56:14;92937.19;;;3.73;100.00
5879;BME280;2965;42.640;23.370;2022-12-11T17:58:40;92946.16;;;3.92;100.00
5879;BME280;2965;42.640;23.370;2022-12-11T18:01:07;92946.53;;;3.74;100.00
5879;BME280;2965;42.640;23.370;2022-12-11T18:03:33;92935.91;;;3.99;100.00
5879;BME280;2965;42.640;23.370;2022-12-11T18:06:03;92944.53;;;4.21;100.00
5879;BME280;2965;42.640;23.370;2022-12-11T18:08:29;92952.44;;;4.19;100.00
5879;BME280;2965;42.640;23.370;2022-12-11T18:10:54;92954.19;;;4.12;100.00
5879;BME280;2965;42.640;23.370;2022-12-11T18:13:21;92958.88;;;4.23;100.00
5879;BME280;2965;42.640;23.370;2022-12-11T18:15:46;92958.50;;;4.26;100.00
5879;BME280;2965;42.640;23.370;2022-12-11T18:18:22;92963.53;;;4.13;100.00
5879;BME280;2965;42.640;23.370;2022-12-11T18:20:48;92966.31;;;3.97;100.00
5879;BME280;2965;42.640;23.370;2022-12-11T18:23:13;92967.69;;;3.78;100.00
5879;BME280;2965;42.640;23.370;2022-12-11T18:25:39;92968.06;;;3.60;100.00
5879;BME280;2965;42.640;23.370;2022-12-11T18:28:04;92968.75;;;3.54;100.00
5879;BME280;2965;42.640;23.370;2022-12-11T18:30:29;92951.44;;;3.40;100.00
5879;BME280;2965;42.640;23.370;2022-12-11T18:32:55;92961.25;;;3.29;100.00
5879;BME280;2965;42.640;23.370;2022-12-11T18:35:20;92956.44;;;3.26;100.00
5879;BME280;2965;42.640;23.370;2022-12-11T18:37:45;92965.16;;;3.25;100.00
5879;BME280;2965;42.640;23.370;2022-12-11T18:40:11;92971.94;;;3.26;100.00
5879;BME280;2965;42.640;23.370;2022-12-11T18:42:37;92969.09;;;3.36;100.00
5879;BME280;2965;42.640;23.370;2022-12-11T18:45:03;92976.56;;;3.31;100.00
5879;BME280;2965;42.640;23.370;2022-12-11T18:47:28;92980.41;;;3.20;100.00
5879;BME280;2965;42.640;23.370;2022-12-11T18:49:54;92984.72;;;3.05;100.00
5879;BME280;2965;42.640;23.370;2022-12-11T18:52:19;92980.03;;;2.86;100.00
5879;BME280;2965;42.640;23.370;2022-12-11T18:54:45;92982.91;;;2.91;100.00
5879;BME280;2965;42.640;23.370;2022-12-11T18:57:11;92981.88;;;3.00;100.00
5879;BME280;2965;42.640;23.370;2022-12-11T18:59:37;92992.91;;;2.94;100.00
5879;BME280;2965;42.640;23.370;2022-12-11T19:02:02;92985.22;;;2.86;100.00
5879;BME280;2965;42.640;23.370;2022-12-11T19:04:27;92980.38;;;2.83;100.00
5879;BME280;2965;42.640;23.370;2022-12-11T19:06:53;92987.19;;;2.84;100.00
5879;BME280;2965;42.640;23.370;2022-12-11T19:09:18;92990.72;;;2.83;100.00
5879;BME280;2965;42.640;23.370;2022-12-11T19:11:44;92989.91;;;2.82;100.00
5879;BME280;2965;42.640;23.370;2022-12-11T19:14:10;92987.53;;;2.81;100.00
5879;BME280;2965;42.640;23.370;2022-12-11T19:16:41;92988.06;;;2.91;100.00
5879;BME280;2965;42.640;23.370;2022-12-11T19:19:11;92997.44;;;2.92;100.00
5879;BME280;2965;42.640;23.370;2022-12-11T19:21:37;92994.00;;;2.76;100.00
5879;BME280;2965;42.640;23.370;2022-12-11T19:24:05;93000.75;;;2.77;100.00
5879;BME280;2965;42.640;23.370;2022-12-11T19:26:31;93006.91;;;2.76;100.00
5879;BME280;2965;42.640;23.370;2022-12-11T19:28:56;92997.84;;;2.81;100.00
5879;BME280;2965;42.640;23.370;2022-12-11T19:31:25;93009.06;;;2.88;100.00
5879;BME280;2965;42.640;23.370;2022-12-11T19:33:51;93014.94;;;2.82;100.00